sensor_id;sensor_type;location;lat;lon;timestamp;P1;durP1;ratioP1;P2;durP2;ratioP2
64633;SDS011;51043;52.406;9.690;2022-12-26T00:02:06;6.57;;;5.30;;
64633;SDS011;51043;52.406;9.690;2022-12-26T00:04:33;5.87;;;5.27;;
64633;SDS011;51043;52.406;9.690;2022-12-26T00:07:00;6.10;;;5.50;;
64633;SDS011;51043;52.406;9.690;2022-12-26T00:09:28;6.97;;;5.77;;
64633;SDS011;51043;52.406;9.690;2022-12-26T00:11:55;5.83;;;5.33;;
64633;SDS011;51043;52.406;9.690;2022-12-26T00:14:21;6.13;;;5.53;;
64633;SDS011;51043;52.406;9.690;2022-12-26T00:16:48;5.97;;;5.37;;
64633;SDS011;51043;52.406;9.690;2022-12-26T00:19:15;7.17;;;6.43;;
64633;SDS011;51043;52.406;9.690;2022-12-26T00:21:42;6.70;;;6.10;;
64633;SDS011;51043;52.406;9.690;2022-12-26T00:24:09;6.77;;;6.17;;
64633;SDS011;51043;52.406;9.690;2022-12-26T00:26:37;7.17;;;6.47;;
64633;SDS011;51043;52.406;9.690;2022-12-26T00:29:04;6.83;;;6.23;;
64633;SDS011;51043;52.406;9.690;2022-12-26T00:31:32;7.20;;;6.50;;
64633;SDS011;51043;52.406;9.690;2022-12-26T00:34:00;7.80;;;6.73;;
64633;SDS011;51043;52.406;9.690;2022-12-26T00:36:29;7.87;;;7.07;;
64633;SDS011;51043;52.406;9.690;2022-12-26T00:38:59;7.70;;;6.90;;
64633;SDS011;51043;52.406;9.690;2022-12-26T00:41:27;7.70;;;6.90;;
64633;SDS011;51043;52.406;9.690;2022-12-26T00:43:55;7.87;;;7.07;;
64633;SDS011;51043;52.406;9.690;2022-12-26T00:46:23;8.00;;;7.20;;
64633;SDS011;51043;52.406;9.690;2022-12-26T00:48:51;8.03;;;7.23;;
64633;SDS011;51043;52.406;9.690;2022-12-26T00:51:18;8.23;;;7.43;;
64633;SDS011;51043;52.406;9.690;2022-12-26T00:53:45;9.37;;;8.03;;
64633;SDS011;51043;52.406;9.690;2022-12-26T00:56:12;8.60;;;7.80;;
64633;SDS011;51043;52.406;9.690;2022-12-26T00:58:39;8.57;;;7.67;;
64633;SDS011;51043;52.406;9.690;2022-12-26T01:01:15;9.50;;;8.47;;
64633;SDS011;51043;52.406;9.690;2022-12-26T01:03:46;9.27;;;7.87;;
64633;SDS011;51043;52.406;9.690;2022-12-26T01:06:14;9.00;;;8.10;;
64633;SDS011;51043;52.406;9.690;2022-12-26T01:08:41;8.97;;;8.10;;
64633;SDS011;51043;52.406;9.690;2022-12-26T01:11:10;9.00;;;8.10;;
64633;SDS011;51043;52.406;9.690;2022-12-26T01:13:39;9.47;;;8.30;;
64633;SDS011;51043;52.406;9.690;2022-12-26T01:16:06;9.90;;;8.90;;
64633;SDS011;51043;52.406;9.690;2022-12-26T01:18:33;10.03;;;8.97;;
64633;SDS011;51043;52.406;9.690;2022-12-26T01:21:02;12.53;;;9.07;;
64633;SDS011;51043;52.406;9.690;2022-12-26T01:23:31;10.97;;;9.70;;
64633;SDS011;51043;52.406;9.690;2022-12-26T01:25:58;10.50;;;9.43;;
64633;SDS011;51043;52.406;9.690;2022-12-26T01:28:24;11.90;;;9.30;;
64633;SDS011;51043;52.406;9.690;2022-12-26T01:30:51;10.50;;;9.40;;
64633;SDS011;51043;52.406;9.690;2022-12-26T01:33:18;10.50;;;9.40;;
64633;SDS011;51043;52.406;9.690;2022-12-26T01:35:51;10.73;;;9.50;;
64633;SDS011;51043;52.406;9.690;2022-12-26T01:38:19;11.80;;;9.33;;
64633;SDS011;51043;52.406;9.690;2022-12-26T01:40:47;10.30;;;8.90;;
64633;SDS011;51043;52.406;9.690;2022-12-26T01:43:14;10.90;;;9.30;;
64633;SDS011;51043;52.406;9.690;2022-12-26T01:45:43;10.50;;;9.20;;
64633;SDS011;51043;52.406;9.690;2022-12-26T01:50:48;11.37;;;9.20;;
64633;SDS011;51043;52.406;9.690;2022-12-26T01:53:41;10.83;;;9.13;;
64633;SDS011;51043;52.406;9.690;2022-12-26T01:56:22;10.57;;;9.43;;
64633;SDS011;51043;52.406;9.690;2022-12-26T01:58:55;9.27;;;7.83;;
64633;SDS011;51043;52.406;9.690;2022-12-26T02:01:28;11.13;;;8.90;;
64633;SDS011;51043;52.406;9.690;2022-12-26T02:03:57;13.77;;;10.20;;
64633;SDS011;51043;52.406;9.690;2022-12-26T02:06:46;11.50;;;9.53;;
64633;SDS011;51043;52.406;9.690;2022-12-26T02:09:13;12.37;;;9.93;;
64633;SDS011;51043;52.406;9.690;2022-12-26T02:11:41;12.80;;;9.77;;
64633;SDS011;51043;52.406;9.690;2022-12-26T02:14:13;13.20;;;10.20;;
64633;SDS011;51043;52.406;9.690;2022-12-26T02:16:40;12.03;;;9.57;;
64633;SDS011;51043;52.406;9.690;2022-12-26T02:19:11;10.67;;;9.23;;
64633;SDS011;51043;52.406;9.690;2022-12-26T02:24:48;11.73;;;9.27;;
64633;SDS011;51043;52.406;9.690;2022-12-26T02:36:12;12.70;;;10.10;;
64633;SDS011;51043;52.406;9.690;2022-12-26T02:42:29;17.83;;;11.37;;
64633;SDS011;51043;52.406;9.690;2022-12-26T02:44:49;16.40;;;12.43;;
64633;SDS011;51043;52.406;9.690;2022-12-26T02:50:32;19.03;;;14.20;;
64633;SDS011;51043;52.406;9.690;2022-12-26T02:53:38;18.07;;;14.30;;
64633;SDS011;51043;52.406;9.690;2022-12-26T02:57:19;21.40;;;13.97;;
64633;SDS011;51043;52.406;9.690;2022-12-26T03:00:09;18.43;;;13.77;;
64633;SDS011;51043;52.406;9.690;2022-12-26T03:03:12;22.07;;;14.93;;
64633;SDS011;51043;52.406;9.690;2022-12-26T03:06:03;22.07;;;15.03;;
64633;SDS011;51043;52.406;9.690;2022-12-26T03:08:54;23.13;;;15.63;;
64633;SDS011;51043;52.406;9.690;2022-12-26T03:11:50;29.13;;;16.03;;
64633;SDS011;51043;52.406;9.690;2022-12-26T03:14:44;19.23;;;15.00;;
64633;SDS011;51043;52.406;9.690;2022-12-26T03:17:22;19.10;;;14.50;;
64633;SDS011;51043;52.406;9.690;2022-12-26T03:22:50;19.53;;;15.17;;
64633;SDS011;51043;52.406;9.690;2022-12-26T03:25:41;19.73;;;15.40;;
64633;SDS011;51043;52.406;9.690;2022-12-26T03:28:39;21.67;;;15.17;;
64633;SDS011;51043;52.406;9.690;2022-12-26T03:31:09;22.10;;;16.07;;
64633;SDS011;51043;52.406;9.690;2022-12-26T03:33:40;20.43;;;15.40;;
64633;SDS011;51043;52.406;9.690;2022-12-26T03:39:39;21.83;;;14.80;;
64633;SDS011;51043;52.406;9.690;2022-12-26T03:42:53;19.50;;;15.20;;
64633;SDS011;51043;52.406;9.690;2022-12-26T03:46:06;21.50;;;15.53;;
64633;SDS011;51043;52.406;9.690;2022-12-26T03:49:20;23.27;;;14.23;;
64633;SDS011;51043;52.406;9.690;2022-12-26T03:52:24;16.30;;;12.63;;
64633;SDS011;51043;52.406;9.690;2022-12-26T03:55:24;17.30;;;13.27;;
64633;SDS011;51043;52.406;9.690;2022-12-26T03:58:55;16.43;;;12.53;;
64633;SDS011;51043;52.406;9.690;2022-12-26T04:01:40;19.40;;;11.73;;
64633;SDS011;51043;52.406;9.690;2022-12-26T04:04:29;16.77;;;11.90;;
64633;SDS011;51043;52.406;9.690;2022-12-26T04:07:28;11.80;;;9.70;;
64633;SDS011;51043;52.406;9.690;2022-12-26T04:10:20;11.70;;;9.63;;
64633;SDS011;51043;52.406;9.690;2022-12-26T04:16:33;10.50;;;8.57;;
64633;SDS011;51043;52.406;9.690;2022-12-26T04:25:15;11.43;;;7.77;;
64633;SDS011;51043;52.406;9.690;2022-12-26T04:28:05;9.17;;;8.10;;
64633;SDS011;51043;52.406;9.690;2022-12-26T04:30:51;10.40;;;8.63;;
64633;SDS011;51043;52.406;9.690;2022-12-26T04:33:48;10.40;;;8.37;;
64633;SDS011;51043;52.406;9.690;2022-12-26T04:36:42;9.97;;;8.63;;
64633;SDS011;51043;52.406;9.690;2022-12-26T04:39:33;9.13;;;8.23;;
64633;SDS011;51043;52.406;9.690;2022-12-26T04:42:20;9.87;;;8.37;;
64633;SDS011;51043;52.406;9.690;2022-12-26T04:45:08;11.67;;;8.70;;
64633;SDS011;51043;52.406;9.690;2022-12-26T04:47:36;10.60;;;9.40;;
64633;SDS011;51043;52.406;9.690;2022-12-26T04:50:04;11.47;;;9.83;;
64633;SDS011;51043;52.406;9.690;2022-12-26T04:52:38;13.10;;;9.90;;
64633;SDS011;51043;52.406;9.690;2022-12-26T04:55:27;12.20;;;10.57;;
64633;SDS011;51043;52.406;9.690;2022-12-26T04:57:56;13.10;;;11.10;;
64633;SDS011;51043;52.406;9.690;2022-12-26T05:00:24;13.23;;;11.10;;
64633;SDS011;51043;52.406;9.690;2022-12-26T05:02:53;15.73;;;11.53;;
64633;SDS011;51043;52.406;9.690;2022-12-26T05:05:44;14.03;;;10.53;;
64633;SDS011;51043;52.406;9.690;2022-12-26T05:08:33;12.90;;;10.50;;
64633;SDS011;51043;52.406;9.690;2022-12-26T05:11:23;12.23;;;10.17;;
64633;SDS011;51043;52.406;9.690;2022-12-26T05:13:54;11.30;;;9.83;;
64633;SDS011;51043;52.406;9.690;2022-12-26T05:16:22;11.53;;;9.37;;
64633;SDS011;51043;52.406;9.690;2022-12-26T05:19:12;8.80;;;7.90;;
64633;SDS011;51043;52.406;9.690;2022-12-26T05:21:59;11.23;;;8.80;;
64633;SDS011;51043;52.406;9.690;2022-12-26T05:24:46;10.90;;;7.90;;
64633;SDS011;51043;52.406;9.690;2022-12-26T05:27:36;11.27;;;9.13;;
64633;SDS011;51043;52.406;9.690;2022-12-26T05:30:24;11.17;;;8.97;;
64633;SDS011;51043;52.406;9.690;2022-12-26T05:32:51;10.97;;;8.23;;
64633;SDS011;51043;52.406;9.690;2022-12-26T05:35:37;9.53;;;8.57;;
64633;SDS011;51043;52.406;9.690;2022-12-26T05:38:04;7.50;;;5.97;;
64633;SDS011;51043;52.406;9.690;2022-12-26T05:40:34;6.03;;;5.00;;
64633;SDS011;51043;52.406;9.690;2022-12-26T05:43:01;6.93;;;5.47;;
64633;SDS011;51043;52.406;9.690;2022-12-26T05:45:28;6.63;;;5.90;;
64633;SDS011;51043;52.406;9.690;2022-12-26T05:47:59;7.63;;;6.93;;
64633;SDS011;51043;52.406;9.690;2022-12-26T05:50:27;9.20;;;7.43;;
64633;SDS011;51043;52.406;9.690;2022-12-26T05:52:57;9.40;;;8.43;;
64633;SDS011;51043;52.406;9.690;2022-12-26T05:55:24;10.00;;;9.00;;
64633;SDS011;51043;52.406;9.690;2022-12-26T05:57:52;10.57;;;9.20;;
64633;SDS011;51043;52.406;9.690;2022-12-26T06:00:19;11.27;;;10.07;;
64633;SDS011;51043;52.406;9.690;2022-12-26T06:02:46;10.63;;;9.53;;
64633;SDS011;51043;52.406;9.690;2022-12-26T06:05:13;10.83;;;9.30;;
64633;SDS011;51043;52.406;9.690;2022-12-26T06:07:40;10.70;;;9.60;;
64633;SDS011;51043;52.406;9.690;2022-12-26T06:10:07;10.17;;;9.13;;
64633;SDS011;51043;52.406;9.690;2022-12-26T06:12:34;10.63;;;9.63;;
64633;SDS011;51043;52.406;9.690;2022-12-26T06:15:01;13.33;;;9.30;;
64633;SDS011;51043;52.406;9.690;2022-12-26T06:17:29;9.77;;;8.40;;
64633;SDS011;51043;52.406;9.690;2022-12-26T06:19:56;10.30;;;8.80;;
64633;SDS011;51043;52.406;9.690;2022-12-26T06:22:23;11.03;;;8.23;;
64633;SDS011;51043;52.406;9.690;2022-12-26T06:24:49;9.70;;;8.67;;
64633;SDS011;51043;52.406;9.690;2022-12-26T06:27:16;8.87;;;7.80;;
64633;SDS011;51043;52.406;9.690;2022-12-26T06:29:44;8.97;;;8.07;;
64633;SDS011;51043;52.406;9.690;2022-12-26T06:32:11;9.17;;;7.97;;
64633;SDS011;51043;52.406;9.690;2022-12-26T06:34:38;9.80;;;8.63;;
64633;SDS011;51043;52.406;9.690;2022-12-26T06:37:04;9.97;;;8.97;;
64633;SDS011;51043;52.406;9.690;2022-12-26T06:39:31;11.73;;;9.47;;
64633;SDS011;51043;52.406;9.690;2022-12-26T06:41:58;10.70;;;9.27;;
64633;SDS011;51043;52.406;9.690;2022-12-26T06:44:24;10.70;;;9.60;;
64633;SDS011;51043;52.406;9.690;2022-12-26T06:46:51;12.17;;;10.30;;
64633;SDS011;51043;52.406;9.690;2022-12-26T06:49:18;12.37;;;10.43;;
64633;SDS011;51043;52.406;9.690;2022-12-26T06:51:45;14.17;;;10.70;;
64633;SDS011;51043;52.406;9.690;2022-12-26T06:54:11;13.07;;;11.00;;
64633;SDS011;51043;52.406;9.690;2022-12-26T06:56:38;12.60;;;10.87;;
64633;SDS011;51043;52.406;9.690;2022-12-26T06:59:05;12.63;;;11.33;;
64633;SDS011;51043;52.406;9.690;2022-12-26T07:01:32;13.97;;;12.03;;
64633;SDS011;51043;52.406;9.690;2022-12-26T07:03:59;13.93;;;12.13;;
64633;SDS011;51043;52.406;9.690;2022-12-26T07:06:30;17.40;;;13.00;;
64633;SDS011;51043;52.406;9.690;2022-12-26T07:09:07;14.87;;;12.30;;
64633;SDS011;51043;52.406;9.690;2022-12-26T07:11:41;16.70;;;13.17;;
64633;SDS011;51043;52.406;9.690;2022-12-26T07:14:09;17.30;;;13.30;;
64633;SDS011;51043;52.406;9.690;2022-12-26T07:16:37;15.73;;;13.17;;
64633;SDS011;51043;52.406;9.690;2022-12-26T07:19:05;16.20;;;13.57;;
64633;SDS011;51043;52.406;9.690;2022-12-26T07:21:32;16.23;;;13.53;;
64633;SDS011;51043;52.406;9.690;2022-12-26T07:24:03;16.50;;;13.17;;
64633;SDS011;51043;52.406;9.690;2022-12-26T07:26:30;19.07;;;13.90;;
64633;SDS011;51043;52.406;9.690;2022-12-26T07:28:57;18.70;;;14.87;;
64633;SDS011;51043;52.406;9.690;2022-12-26T07:31:24;17.33;;;13.73;;
64633;SDS011;51043;52.406;9.690;2022-12-26T07:33:54;18.33;;;14.47;;
64633;SDS011;51043;52.406;9.690;2022-12-26T07:36:22;17.40;;;14.67;;
64633;SDS011;51043;52.406;9.690;2022-12-26T07:38:52;20.97;;;15.03;;
64633;SDS011;51043;52.406;9.690;2022-12-26T07:41:19;17.87;;;14.93;;
64633;SDS011;51043;52.406;9.690;2022-12-26T07:44:05;19.27;;;15.67;;
64633;SDS011;51043;52.406;9.690;2022-12-26T07:46:32;19.37;;;15.27;;
64633;SDS011;51043;52.406;9.690;2022-12-26T07:48:59;18.40;;;14.70;;
64633;SDS011;51043;52.406;9.690;2022-12-26T07:51:26;18.17;;;14.70;;
64633;SDS011;51043;52.406;9.690;2022-12-26T07:53:53;18.37;;;14.20;;
64633;SDS011;51043;52.406;9.690;2022-12-26T07:56:20;17.50;;;14.23;;
64633;SDS011;51043;52.406;9.690;2022-12-26T07:58:47;17.80;;;13.40;;
64633;SDS011;51043;52.406;9.690;2022-12-26T08:01:15;18.10;;;12.90;;
64633;SDS011;51043;52.406;9.690;2022-12-26T08:03:42;14.87;;;13.10;;
64633;SDS011;51043;52.406;9.690;2022-12-26T08:06:09;15.23;;;13.23;;
64633;SDS011;51043;52.406;9.690;2022-12-26T08:08:36;13.00;;;11.60;;
64633;SDS011;51043;52.406;9.690;2022-12-26T08:11:04;12.93;;;11.43;;
64633;SDS011;51043;52.406;9.690;2022-12-26T08:13:32;14.43;;;10.97;;
64633;SDS011;51043;52.406;9.690;2022-12-26T08:16:03;14.20;;;10.90;;
64633;SDS011;51043;52.406;9.690;2022-12-26T08:18:33;12.27;;;10.97;;
64633;SDS011;51043;52.406;9.690;2022-12-26T08:21:00;14.20;;;10.73;;
64633;SDS011;51043;52.406;9.690;2022-12-26T08:23:27;12.63;;;10.90;;
64633;SDS011;51043;52.406;9.690;2022-12-26T08:25:54;12.70;;;10.87;;
64633;SDS011;51043;52.406;9.690;2022-12-26T08:28:21;11.27;;;10.07;;
64633;SDS011;51043;52.406;9.690;2022-12-26T08:30:48;12.43;;;11.03;;
64633;SDS011;51043;52.406;9.690;2022-12-26T08:33:15;11.93;;;10.73;;
64633;SDS011;51043;52.406;9.690;2022-12-26T08:35:42;11.47;;;10.23;;
64633;SDS011;51043;52.406;9.690;2022-12-26T08:38:09;11.37;;;10.17;;
64633;SDS011;51043;52.406;9.690;2022-12-26T08:40:36;13.47;;;9.90;;
64633;SDS011;51043;52.406;9.690;2022-12-26T08:43:10;14.83;;;11.33;;
64633;SDS011;51043;52.406;9.690;2022-12-26T08:45:48;11.17;;;9.77;;
64633;SDS011;51043;52.406;9.690;2022-12-26T08:48:24;10.33;;;9.30;;
64633;SDS011;51043;52.406;9.690;2022-12-26T08:50:58;10.70;;;9.60;;
64633;SDS011;51043;52.406;9.690;2022-12-26T08:53:37;12.30;;;10.33;;
64633;SDS011;51043;52.406;9.690;2022-12-26T08:56:05;10.87;;;9.27;;
64633;SDS011;51043;52.406;9.690;2022-12-26T08:58:33;10.10;;;9.10;;
64633;SDS011;51043;52.406;9.690;2022-12-26T09:01:07;11.13;;;9.97;;
64633;SDS011;51043;52.406;9.690;2022-12-26T09:03:43;10.70;;;9.07;;
64633;SDS011;51043;52.406;9.690;2022-12-26T09:06:11;9.57;;;7.57;;
64633;SDS011;51043;52.406;9.690;2022-12-26T09:08:40;8.80;;;7.20;;
64633;SDS011;51043;52.406;9.690;2022-12-26T09:11:08;8.23;;;7.43;;
64633;SDS011;51043;52.406;9.690;2022-12-26T09:13:38;8.60;;;7.73;;
64633;SDS011;51043;52.406;9.690;2022-12-26T09:16:12;9.33;;;8.33;;
64633;SDS011;51043;52.406;9.690;2022-12-26T09:18:40;7.43;;;6.73;;
64633;SDS011;51043;52.406;9.690;2022-12-26T09:21:09;8.13;;;7.13;;
64633;SDS011;51043;52.406;9.690;2022-12-26T09:23:37;9.47;;;7.30;;
64633;SDS011;51043;52.406;9.690;2022-12-26T09:26:05;7.10;;;6.40;;
64633;SDS011;51043;52.406;9.690;2022-12-26T09:28:37;6.60;;;6.00;;
64633;SDS011;51043;52.406;9.690;2022-12-26T09:31:07;6.33;;;5.73;;
64633;SDS011;51043;52.406;9.690;2022-12-26T09:33:37;6.80;;;5.63;;
64633;SDS011;51043;52.406;9.690;2022-12-26T09:36:05;6.10;;;5.50;;
64633;SDS011;51043;52.406;9.690;2022-12-26T09:38:38;6.03;;;5.33;;
64633;SDS011;51043;52.406;9.690;2022-12-26T09:46:33;7.57;;;5.20;;
64633;SDS011;51043;52.406;9.690;2022-12-26T09:49:12;5.77;;;4.20;;
64633;SDS011;51043;52.406;9.690;2022-12-26T09:51:46;7.07;;;5.20;;
64633;SDS011;51043;52.406;9.690;2022-12-26T09:55:03;8.20;;;5.30;;
64633;SDS011;51043;52.406;9.690;2022-12-26T09:57:11;4.50;;;4.10;;
64633;SDS011;51043;52.406;9.690;2022-12-26T09:59:51;5.93;;;4.60;;
64633;SDS011;51043;52.406;9.690;2022-12-26T10:02:24;5.93;;;4.57;;
64633;SDS011;51043;52.406;9.690;2022-12-26T10:04:52;5.70;;;4.07;;
64633;SDS011;51043;52.406;9.690;2022-12-26T10:10:13;5.67;;;4.53;;
64633;SDS011;51043;52.406;9.690;2022-12-26T10:13:05;5.37;;;4.57;;
64633;SDS011;51043;52.406;9.690;2022-12-26T10:15:50;6.33;;;4.37;;
64633;SDS011;51043;52.406;9.690;2022-12-26T10:24:02;5.53;;;4.67;;
64633;SDS011;51043;52.406;9.690;2022-12-26T10:26:40;6.93;;;4.53;;
64633;SDS011;51043;52.406;9.690;2022-12-26T10:29:12;5.63;;;4.67;;
64633;SDS011;51043;52.406;9.690;2022-12-26T10:31:49;6.73;;;4.53;;
64633;SDS011;51043;52.406;9.690;2022-12-26T10:34:36;7.87;;;4.80;;
64633;SDS011;51043;52.406;9.690;2022-12-26T10:37:17;7.30;;;4.70;;
64633;SDS011;51043;52.406;9.690;2022-12-26T10:43:14;6.77;;;4.60;;
64633;SDS011;51043;52.406;9.690;2022-12-26T10:45:54;4.17;;;3.63;;
64633;SDS011;51043;52.406;9.690;2022-12-26T10:48:36;7.20;;;4.57;;
64633;SDS011;51043;52.406;9.690;2022-12-26T10:51:03;7.13;;;5.20;;
64633;SDS011;51043;52.406;9.690;2022-12-26T10:53:39;6.20;;;4.20;;
64633;SDS011;51043;52.406;9.690;2022-12-26T10:56:09;5.23;;;4.60;;
64633;SDS011;51043;52.406;9.690;2022-12-26T10:58:40;7.00;;;5.47;;
64633;SDS011;51043;52.406;9.690;2022-12-26T11:03:56;3.90;;;3.60;;
64633;SDS011;51043;52.406;9.690;2022-12-26T11:06:26;7.30;;;4.30;;
64633;SDS011;51043;52.406;9.690;2022-12-26T11:08:58;7.27;;;6.03;;
64633;SDS011;51043;52.406;9.690;2022-12-26T11:11:26;7.23;;;3.87;;
64633;SDS011;51043;52.406;9.690;2022-12-26T11:14:25;5.33;;;4.80;;
64633;SDS011;51043;52.406;9.690;2022-12-26T11:17:00;6.57;;;4.30;;
64633;SDS011;51043;52.406;9.690;2022-12-26T11:19:33;8.50;;;3.67;;
64633;SDS011;51043;52.406;9.690;2022-12-26T11:25:01;4.27;;;3.07;;
64633;SDS011;51043;52.406;9.690;2022-12-26T11:27:45;6.43;;;3.03;;
64633;SDS011;51043;52.406;9.690;2022-12-26T11:33:12;4.97;;;2.90;;
64633;SDS011;51043;52.406;9.690;2022-12-26T11:35:51;5.67;;;3.23;;
64633;SDS011;51043;52.406;9.690;2022-12-26T11:38:23;6.80;;;3.00;;
64633;SDS011;51043;52.406;9.690;2022-12-26T11:41:08;5.67;;;2.90;;
64633;SDS011;51043;52.406;9.690;2022-12-26T11:49:20;6.83;;;3.03;;
64633;SDS011;51043;52.406;9.690;2022-12-26T11:51:58;6.47;;;2.70;;
64633;SDS011;51043;52.406;9.690;2022-12-26T11:57:30;3.33;;;2.03;;
64633;SDS011;51043;52.406;9.690;2022-12-26T12:00:19;3.13;;;2.20;;
64633;SDS011;51043;52.406;9.690;2022-12-26T12:02:47;5.70;;;2.40;;
64633;SDS011;51043;52.406;9.690;2022-12-26T12:05:15;5.93;;;3.13;;
64633;SDS011;51043;52.406;9.690;2022-12-26T12:11:45;3.00;;;2.17;;
64633;SDS011;51043;52.406;9.690;2022-12-26T12:14:05;4.70;;;2.07;;
64633;SDS011;51043;52.406;9.690;2022-12-26T12:22:29;6.80;;;2.60;;
64633;SDS011;51043;52.406;9.690;2022-12-26T12:25:24;6.87;;;2.60;;
64633;SDS011;51043;52.406;9.690;2022-12-26T12:27:59;4.97;;;2.40;;
64633;SDS011;51043;52.406;9.690;2022-12-26T12:34:03;5.97;;;2.30;;
64633;SDS011;51043;52.406;9.690;2022-12-26T12:39:30;8.37;;;2.63;;
64633;SDS011;51043;52.406;9.690;2022-12-26T12:42:25;5.33;;;2.20;;
64633;SDS011;51043;52.406;9.690;2022-12-26T12:45:08;3.57;;;2.03;;
64633;SDS011;51043;52.406;9.690;2022-12-26T12:47:55;4.53;;;1.87;;
64633;SDS011;51043;52.406;9.690;2022-12-26T12:50:38;6.00;;;2.40;;
64633;SDS011;51043;52.406;9.690;2022-12-26T12:53:34;5.17;;;1.93;;
64633;SDS011;51043;52.406;9.690;2022-12-26T12:56:23;6.50;;;2.00;;
64633;SDS011;51043;52.406;9.690;2022-12-26T12:59:30;5.47;;;2.00;;
64633;SDS011;51043;52.406;9.690;2022-12-26T13:02:15;6.97;;;2.50;;
64633;SDS011;51043;52.406;9.690;2022-12-26T13:04:50;9.33;;;2.40;;
64633;SDS011;51043;52.406;9.690;2022-12-26T13:07:30;10.43;;;4.90;;
64633;SDS011;51043;52.406;9.690;2022-12-26T13:10:12;5.17;;;2.20;;
64633;SDS011;51043;52.406;9.690;2022-12-26T13:13:15;7.47;;;2.53;;
64633;SDS011;51043;52.406;9.690;2022-12-26T13:15:56;8.27;;;3.13;;
64633;SDS011;51043;52.406;9.690;2022-12-26T13:18:34;4.20;;;2.20;;
64633;SDS011;51043;52.406;9.690;2022-12-26T13:21:06;7.63;;;4.53;;
64633;SDS011;51043;52.406;9.690;2022-12-26T13:23:37;7.63;;;2.70;;
64633;SDS011;51043;52.406;9.690;2022-12-26T13:26:37;5.17;;;2.17;;
64633;SDS011;51043;52.406;9.690;2022-12-26T13:32:16;4.93;;;2.43;;
64633;SDS011;51043;52.406;9.690;2022-12-26T13:34:50;2.70;;;1.97;;
64633;SDS011;51043;52.406;9.690;2022-12-26T13:42:44;4.00;;;2.27;;
64633;SDS011;51043;52.406;9.690;2022-12-26T13:45:55;11.10;;;2.30;;
64633;SDS011;51043;52.406;9.690;2022-12-26T13:51:02;2.20;;;1.43;;
64633;SDS011;51043;52.406;9.690;2022-12-26T13:53:31;3.40;;;1.20;;
64633;SDS011;51043;52.406;9.690;2022-12-26T14:01:52;2.40;;;1.63;;
64633;SDS011;51043;52.406;9.690;2022-12-26T14:08:06;3.67;;;2.10;;
64633;SDS011;51043;52.406;9.690;2022-12-26T14:10:42;3.87;;;2.10;;
64633;SDS011;51043;52.406;9.690;2022-12-26T14:19:03;2.60;;;2.10;;
64633;SDS011;51043;52.406;9.690;2022-12-26T14:24:49;6.73;;;3.20;;
64633;SDS011;51043;52.406;9.690;2022-12-26T14:31:03;6.90;;;2.60;;
64633;SDS011;51043;52.406;9.690;2022-12-26T14:34:20;9.07;;;2.80;;
64633;SDS011;51043;52.406;9.690;2022-12-26T14:40:03;5.17;;;2.83;;
64633;SDS011;51043;52.406;9.690;2022-12-26T14:53:31;8.50;;;2.10;;
64633;SDS011;51043;52.406;9.690;2022-12-26T14:58:47;7.27;;;2.60;;
64633;SDS011;51043;52.406;9.690;2022-12-26T15:03:58;6.87;;;1.87;;
64633;SDS011;51043;52.406;9.690;2022-12-26T15:18:26;10.07;;;2.43;;
64633;SDS011;51043;52.406;9.690;2022-12-26T15:21:21;8.93;;;2.10;;
64633;SDS011;51043;52.406;9.690;2022-12-26T15:27:28;11.47;;;2.63;;
64633;SDS011;51043;52.406;9.690;2022-12-26T15:30:20;4.83;;;1.93;;
64633;SDS011;51043;52.406;9.690;2022-12-26T15:33:11;4.27;;;1.57;;
64633;SDS011;51043;52.406;9.690;2022-12-26T15:35:46;2.37;;;1.40;;
64633;SDS011;51043;52.406;9.690;2022-12-26T15:43:37;8.40;;;1.83;;
64633;SDS011;51043;52.406;9.690;2022-12-26T15:46:43;7.77;;;2.13;;
64633;SDS011;51043;52.406;9.690;2022-12-26T15:52:30;9.73;;;2.10;;
64633;SDS011;51043;52.406;9.690;2022-12-26T16:01:11;12.60;;;2.57;;
64633;SDS011;51043;52.406;9.690;2022-12-26T16:04:00;6.50;;;2.00;;
64633;SDS011;51043;52.406;9.690;2022-12-26T16:12:18;9.00;;;2.47;;
64633;SDS011;51043;52.406;9.690;2022-12-26T16:15:27;8.63;;;2.13;;
64633;SDS011;51043;52.406;9.690;2022-12-26T16:17:50;9.93;;;2.97;;
64633;SDS011;51043;52.406;9.690;2022-12-26T16:23:17;7.60;;;2.20;;
64633;SDS011;51043;52.406;9.690;2022-12-26T16:25:47;7.57;;;2.60;;
64633;SDS011;51043;52.406;9.690;2022-12-26T16:28:20;6.30;;;2.17;;
64633;SDS011;51043;52.406;9.690;2022-12-26T16:31:04;9.03;;;2.63;;
64633;SDS011;51043;52.406;9.690;2022-12-26T16:33:35;7.70;;;1.93;;
64633;SDS011;51043;52.406;9.690;2022-12-26T16:36:10;10.03;;;1.83;;
64633;SDS011;51043;52.406;9.690;2022-12-26T16:38:46;8.90;;;2.43;;
64633;SDS011;51043;52.406;9.690;2022-12-26T16:41:20;6.33;;;2.30;;
64633;SDS011;51043;52.406;9.690;2022-12-26T16:43:47;8.70;;;2.43;;
64633;SDS011;51043;52.406;9.690;2022-12-26T16:46:15;9.13;;;3.37;;
64633;SDS011;51043;52.406;9.690;2022-12-26T16:48:52;6.67;;;2.73;;
64633;SDS011;51043;52.406;9.690;2022-12-26T16:51:39;9.83;;;2.70;;
64633;SDS011;51043;52.406;9.690;2022-12-26T16:54:54;5.37;;;2.37;;
64633;SDS011;51043;52.406;9.690;2022-12-26T16:59:43;6.30;;;2.07;;
64633;SDS011;51043;52.406;9.690;2022-12-26T17:02:19;7.10;;;3.40;;
64633;SDS011;51043;52.406;9.690;2022-12-26T17:04:54;9.20;;;2.43;;
64633;SDS011;51043;52.406;9.690;2022-12-26T17:07:29;7.63;;;2.30;;
64633;SDS011;51043;52.406;9.690;2022-12-26T17:09:58;8.63;;;2.43;;
64633;SDS011;51043;52.406;9.690;2022-12-26T17:12:27;11.40;;;2.70;;
64633;SDS011;51043;52.406;9.690;2022-12-26T17:15:00;15.17;;;3.13;;
64633;SDS011;51043;52.406;9.690;2022-12-26T17:17:33;16.13;;;3.30;;
64633;SDS011;51043;52.406;9.690;2022-12-26T17:22:56;8.07;;;2.20;;
64633;SDS011;51043;52.406;9.690;2022-12-26T17:25:30;7.23;;;2.20;;
64633;SDS011;51043;52.406;9.690;2022-12-26T17:30:44;17.47;;;2.83;;
64633;SDS011;51043;52.406;9.690;2022-12-26T17:33:20;12.03;;;2.50;;
64633;SDS011;51043;52.406;9.690;2022-12-26T17:36:03;14.00;;;2.60;;
64633;SDS011;51043;52.406;9.690;2022-12-26T17:38:53;16.97;;;3.20;;
64633;SDS011;51043;52.406;9.690;2022-12-26T17:41:20;14.03;;;3.10;;
64633;SDS011;51043;52.406;9.690;2022-12-26T17:43:47;9.80;;;2.70;;
64633;SDS011;51043;52.406;9.690;2022-12-26T17:46:16;13.17;;;3.70;;
64633;SDS011;51043;52.406;9.690;2022-12-26T17:48:43;11.63;;;2.83;;
64633;SDS011;51043;52.406;9.690;2022-12-26T17:51:11;18.20;;;4.37;;
64633;SDS011;51043;52.406;9.690;2022-12-26T17:53:42;13.87;;;3.40;;
64633;SDS011;51043;52.406;9.690;2022-12-26T17:56:15;11.87;;;2.97;;
64633;SDS011;51043;52.406;9.690;2022-12-26T17:58:46;12.67;;;3.20;;
64633;SDS011;51043;52.406;9.690;2022-12-26T18:01:14;16.03;;;4.33;;
64633;SDS011;51043;52.406;9.690;2022-12-26T18:03:45;13.97;;;3.20;;
64633;SDS011;51043;52.406;9.690;2022-12-26T18:06:13;15.77;;;3.13;;
64633;SDS011;51043;52.406;9.690;2022-12-26T18:08:41;15.33;;;2.90;;
64633;SDS011;51043;52.406;9.690;2022-12-26T18:11:10;10.50;;;3.80;;
64633;SDS011;51043;52.406;9.690;2022-12-26T18:13:38;10.90;;;3.03;;
64633;SDS011;51043;52.406;9.690;2022-12-26T18:16:05;14.53;;;3.17;;
64633;SDS011;51043;52.406;9.690;2022-12-26T18:18:34;19.13;;;3.00;;
64633;SDS011;51043;52.406;9.690;2022-12-26T18:21:10;15.10;;;3.47;;
64633;SDS011;51043;52.406;9.690;2022-12-26T18:23:39;12.07;;;3.33;;
64633;SDS011;51043;52.406;9.690;2022-12-26T18:26:07;14.37;;;3.43;;
64633;SDS011;51043;52.406;9.690;2022-12-26T18:28:40;18.47;;;3.30;;
64633;SDS011;51043;52.406;9.690;2022-12-26T18:31:07;12.57;;;3.20;;
64633;SDS011;51043;52.406;9.690;2022-12-26T18:33:40;22.50;;;3.90;;